Time;durP1;ratioP1;P1;durP2;ratioP2;P2;SDS_P1;SDS_P2;PMS_P1;PMS_P2;Temp;Humidity;BMP_temperature;BMP_pressure;BME280_temperature;BME280_humidity;BME280_pressure;Samples;Min_cycle;Max_cycle;Signal;HPM_P1;HPM_P2
2022/09/02 00:00:21;;;;;;;3.45;0.90;;;13.90;49.40;;;;;;5032876;28;20069;-26
2022/09/02 00:02:48;;;;;;;1.45;0.80;;;13.90;57.70;;;;;;5033414;28;20487;-26
2022/09/02 00:05:15;;;;;;;1.38;0.75;;;13.90;70.40;;;;;;5033729;28;20060;-25
2022/09/02 00:07:41;;;;;;;1.92;0.90;;;13.90;46.60;;;;;;5035060;28;20053;-25
2022/09/02 00:10:07;;;;;;;4.70;1.02;;;13.80;40.70;;;;;;5033778;28;20564;-26
2022/09/02 00:12:33;;;;;;;1.40;0.82;;;13.80;38.60;;;;;;5033185;28;20095;-25
2022/09/02 00:14:58;;;;;;;2.72;0.82;;;13.70;40.00;;;;;;5033367;28;20132;-25
2022/09/02 00:17:24;;;;;;;3.20;1.48;;;13.70;42.80;;;;;;5031725;28;20075;-26
2022/09/02 00:19:50;;;;;;;1.60;0.80;;;13.70;58.80;;;;;;5032466;28;20365;-26
2022/09/02 00:22:16;;;;;;;1.50;0.73;;;13.60;50.10;;;;;;5034179;28;20111;-26
2022/09/02 00:24:42;;;;;;;1.50;0.80;;;13.60;73.40;;;;;;5033048;28;20487;-25
2022/09/02 00:27:07;;;;;;;1.08;0.88;;;13.60;59.10;;;;;;5032985;28;20487;-25
2022/09/02 00:29:33;;;;;;;2.80;0.90;;;13.50;59.30;;;;;;5033071;28;20069;-25
2022/09/02 00:31:59;;;;;;;1.40;0.70;;;13.50;79.70;;;;;;5032746;28;20041;-25
2022/09/02 00:34:25;;;;;;;2.47;0.90;;;13.50;86.40;;;;;;5032757;28;20049;-25
2022/09/02 00:36:51;;;;;;;0.70;0.60;;;13.40;76.40;;;;;;5033282;28;20046;-26
2022/09/02 00:39:17;;;;;;;3.80;0.88;;;13.40;99.90;;;;;;5033110;28;20049;-26
2022/09/02 00:41:44;;;;;;;1.75;0.90;;;13.30;99.90;;;;;;5033799;28;20050;-26
2022/09/02 00:44:13;;;;;;;2.53;0.82;;;13.30;99.90;;;;;;5032153;28;20045;-26
2022/09/02 00:46:38;;;;;;;2.35;1.10;;;13.30;99.90;;;;;;5031956;28;20045;-26
2022/09/02 00:49:23;;;;;;;3.08;0.80;;;13.20;99.90;;;;;;5047152;28;20056;-25
2022/09/02 00:51:57;;;;;;;1.20;0.95;;;13.20;99.90;;;;;;5032134;28;20498;-26
2022/09/02 00:54:25;;;;;;;3.60;0.88;;;13.10;99.90;;;;;;5034069;28;20049;-26
2022/09/02 00:56:52;;;;;;;4.38;1.00;;;13.10;99.90;;;;;;5032000;28;20048;-26
2022/09/02 00:59:45;;;;;;;1.60;0.90;;;13.00;99.90;;;;;;5033057;28;20049;-26
2022/09/02 01:02:12;;;;;;;2.40;0.88;;;13.00;99.90;;;;;;5031950;28;20056;-26
2022/09/02 01:04:38;;;;;;;5.00;0.75;;;13.00;99.90;;;;;;5033623;28;20052;-28
2022/09/02 01:07:05;;;;;;;2.97;1.10;;;13.00;99.90;;;;;;5032804;28;20048;-28
2022/09/02 01:09:32;;;;;;;3.83;1.00;;;12.90;99.90;;;;;;5032892;28;20045;-27
2022/09/02 01:12:01;;;;;;;3.97;0.82;;;12.90;99.90;;;;;;5033543;28;20046;-27
2022/09/02 01:14:28;;;;;;;4.75;1.02;;;12.90;99.90;;;;;;5032506;28;20089;-27
2022/09/02 01:16:58;;;;;;;3.17;1.00;;;12.90;99.90;;;;;;5030472;28;20037;-27
2022/09/02 01:19:26;;;;;;;3.55;1.17;;;12.90;99.90;;;;;;5031814;28;20050;-28
2022/09/02 01:21:54;;;;;;;5.10;1.48;;;12.90;99.90;;;;;;5032439;28;20092;-27
2022/09/02 01:24:21;;;;;;;1.92;1.10;;;12.90;99.90;;;;;;5032368;28;20046;-27
2022/09/02 01:26:50;;;;;;;4.03;1.10;;;12.80;99.90;;;;;;5032316;28;20080;-27
2022/09/02 01:29:16;;;;;;;3.13;1.23;;;12.70;99.90;;;;;;5032361;28;20060;-27
2022/09/02 01:31:42;;;;;;;1.58;0.90;;;12.70;99.90;;;;;;5035636;28;20045;-27
2022/09/02 01:34:08;;;;;;;1.40;1.05;;;12.60;99.90;;;;;;5036934;28;20104;-27
2022/09/02 01:36:37;;;;;;;2.85;1.10;;;12.60;99.90;;;;;;5037652;28;20057;-27
2022/09/02 01:39:03;;;;;;;2.05;1.25;;;12.60;99.90;;;;;;5017840;28;20055;-27
2022/09/02 01:41:29;;;;;;;2.83;1.10;;;12.60;99.90;;;;;;5037109;28;20049;-27
2022/09/02 01:43:55;;;;;;;2.20;1.17;;;12.50;99.90;;;;;;5035993;28;20080;-27
2022/09/02 01:46:22;;;;;;;1.60;1.02;;;12.50;99.90;;;;;;5036941;28;20095;-27
2022/09/02 01:48:49;;;;;;;2.35;1.10;;;12.50;99.90;;;;;;5034892;28;20443;-27
2022/09/02 01:51:18;;;;;;;1.98;0.95;;;12.50;99.90;;;;;;5051303;28;20056;-27
2022/09/02 01:53:44;;;;;;;2.10;1.20;;;12.40;99.90;;;;;;5032052;28;20068;-27
2022/09/02 01:56:10;;;;;;;2.65;1.20;;;12.50;99.90;;;;;;5032552;28;20147;-27
2022/09/02 01:58:35;;;;;;;2.78;1.10;;;12.60;99.90;;;;;;5036118;28;20073;-27
2022/09/02 02:01:02;;;;;;;4.05;1.20;;;12.50;99.90;;;;;;5036916;28;20049;-28
2022/09/02 02:03:28;;;;;;;2.92;1.00;;;12.60;99.90;;;;;;5051660;28;20049;-28
2022/09/02 02:05:54;;;;;;;1.90;1.20;;;12.50;99.90;;;;;;5032548;28;20048;-28
2022/09/02 02:08:20;;;;;;;2.40;1.42;;;12.50;99.90;;;;;;5036467;28;20121;-28
2022/09/02 02:10:46;;;;;;;3.70;1.60;;;12.50;99.90;;;;;;5035472;28;20124;-27
2022/09/02 02:13:12;;;;;;;4.18;1.30;;;12.50;99.90;;;;;;5036583;28;20128;-27
2022/09/02 02:15:40;;;;;;;3.17;1.20;;;12.40;99.90;;;;;;5034511;28;20102;-27
2022/09/02 02:18:07;;;;;;;2.85;1.20;;;12.40;99.90;;;;;;5035900;28;20099;-27
2022/09/02 02:20:33;;;;;;;5.28;1.35;;;12.30;99.90;;;;;;5033946;28;20048;-27
2022/09/02 02:22:59;;;;;;;1.60;1.20;;;12.30;99.90;;;;;;5033735;28;20049;-28
2022/09/02 02:25:24;;;;;;;3.55;1.13;;;12.30;99.90;;;;;;5035347;28;20061;-28
2022/09/02 02:27:50;;;;;;;2.58;0.93;;;12.40;99.90;;;;;;5051886;28;20068;-27
2022/09/02 02:30:16;;;;;;;3.60;1.00;;;12.30;99.90;;;;;;5035166;28;20499;-27
2022/09/02 02:32:43;;;;;;;3.15;1.08;;;12.30;99.90;;;;;;5036274;28;20045;-27
2022/09/02 02:35:10;;;;;;;2.35;1.00;;;12.30;99.90;;;;;;5035436;28;20057;-27
2022/09/02 02:37:36;;;;;;;3.03;0.80;;;12.30;99.90;;;;;;5034971;28;20049;-27
2022/09/02 02:40:03;;;;;;;2.53;0.75;;;12.30;99.90;;;;;;5035765;28;20038;-27
2022/09/02 02:42:29;;;;;;;3.65;1.08;;;12.20;99.90;;;;;;5032310;28;20052;-27
2022/09/02 02:44:55;;;;;;;2.35;1.20;;;12.20;99.90;;;;;;5035796;28;20057;-27
2022/09/02 02:47:21;;;;;;;1.75;0.90;;;12.20;99.90;;;;;;5035679;28;20049;-27
2022/09/02 02:49:46;;;;;;;2.67;0.98;;;12.10;99.90;;;;;;5033932;28;20072;-28
2022/09/02 02:52:13;;;;;;;2.75;0.90;;;12.10;99.90;;;;;;5034224;28;20151;-27
2022/09/02 02:54:39;;;;;;;1.50;1.13;;;12.00;99.90;;;;;;5049400;28;20507;-27
2022/09/02 02:57:06;;;;;;;1.65;1.10;;;12.00;99.90;;;;;;5035118;28;20059;-27
2022/09/02 02:59:32;;;;;;;2.90;1.25;;;12.10;99.90;;;;;;5035938;28;20068;-27
2022/09/02 03:01:58;;;;;;;2.08;1.17;;;12.00;99.90;;;;;;5033878;28;20080;-27
2022/09/02 03:04:24;;;;;;;2.70;1.17;;;11.90;99.90;;;;;;5023005;28;20085;-27
2022/09/02 03:06:50;;;;;;;1.75;1.30;;;11.90;99.90;;;;;;5051573;28;20471;-27
2022/09/02 03:09:16;;;;;;;1.58;1.13;;;11.80;99.90;;;;;;5034903;28;20072;-28
2022/09/02 03:11:42;;;;;;;3.97;1.38;;;11.80;99.90;;;;;;5033936;28;20483;-27
2022/09/02 03:14:08;;;;;;;2.20;1.08;;;11.70;99.90;;;;;;5033161;28;20061;-28
2022/09/02 03:16:35;;;;;;;3.33;1.40;;;11.70;99.90;;;;;;5034448;28;20100;-27
2022/09/02 03:19:01;;;;;;;1.45;1.02;;;11.70;99.90;;;;;;5034583;28;20061;-27
2022/09/02 03:21:27;;;;;;;3.25;1.50;;;11.60;99.90;;;;;;5035379;28;20057;-27
2022/09/02 03:23:52;;;;;;;2.47;1.50;;;11.60;99.90;;;;;;5034032;28;20041;-27
2022/09/02 03:26:22;;;;;;;2.97;1.25;;;11.50;99.90;;;;;;5035239;28;20579;-28
2022/09/02 03:28:48;;;;;;;4.28;1.40;;;11.50;99.90;;;;;;5035331;28;20037;-27
2022/09/02 03:31:18;;;;;;;3.67;1.23;;;11.40;99.90;;;;;;5035163;28;20128;-28
2022/09/02 03:33:44;;;;;;;1.55;1.33;;;11.30;99.90;;;;;;5018959;28;20049;-28
2022/09/02 03:36:28;;;;;;;2.65;1.70;;;11.30;1.00;;;;;;5034697;28;20053;-27
2022/09/02 03:38:54;;;;;;;1.70;1.35;;;11.20;1.00;;;;;;5034359;28;20412;-27
2022/09/02 03:41:20;;;;;;;4.03;1.45;;;11.20;1.00;;;;;;5033311;28;20045;-27
2022/09/02 03:43:47;;;;;;;3.55;1.27;;;11.10;99.90;;;;;;5033751;28;20071;-27
2022/09/02 03:46:13;;;;;;;3.72;1.40;;;11.00;99.90;;;;;;5034742;28;20045;-27
2022/09/02 03:48:39;;;;;;;5.32;1.65;;;11.00;1.00;;;;;;5032720;28;20045;-27
2022/09/02 03:51:05;;;;;;;2.70;1.60;;;11.00;1.00;;;;;;5034755;28;20503;-27
2022/09/02 03:53:31;;;;;;;4.47;2.20;;;10.80;1.00;;;;;;5033733;28;20132;-27
2022/09/02 03:56:02;;;;;;;3.63;1.60;;;10.80;1.00;;;;;;5031949;28;20132;-27
2022/09/02 03:58:28;;;;;;;2.97;1.90;;;10.80;1.00;;;;;;5032789;28;20103;-27
2022/09/02 04:00:54;;;;;;;5.72;1.90;;;10.70;1.00;;;;;;5034561;28;20038;-27
2022/09/02 04:03:20;;;;;;;3.72;1.95;;;10.70;1.00;;;;;;5033698;28;20048;-27
2022/09/02 04:05:48;;;;;;;4.10;1.55;;;10.60;1.00;;;;;;5033598;28;20053;-28
2022/09/02 04:08:14;;;;;;;3.58;1.73;;;10.60;1.00;;;;;;5034136;28;20503;-27
2022/09/02 04:10:40;;;;;;;3.05;2.10;;;10.60;1.00;;;;;;5033730;28;20056;-27
2022/09/02 04:13:05;;;;;;;2.10;1.90;;;10.50;1.00;;;;;;5047745;28;20553;-27
2022/09/02 04:15:31;;;;;;;3.10;1.98;;;10.60;1.00;;;;;;5032727;28;20495;-27
2022/09/02 04:17:57;;;;;;;3.25;1.92;;;10.60;1.00;;;;;;5034258;28;20045;-28
2022/09/02 04:20:23;;;;;;;6.43;2.15;;;10.60;1.00;;;;;;5032667;28;20084;-27
2022/09/02 04:22:49;;;;;;;5.40;1.85;;;10.40;1.00;;;;;;5034178;28;20087;-27
2022/09/02 04:25:14;;;;;;;2.85;1.85;;;10.40;1.00;;;;;;5032376;28;20057;-27
2022/09/02 04:27:40;;;;;;;3.78;2.15;;;10.40;1.00;;;;;;5048493;28;20052;-27
2022/09/02 04:30:07;;;;;;;2.97;2.30;;;10.40;1.00;;;;;;5034075;28;20046;-27
2022/09/02 04:32:33;;;;;;;2.58;2.10;;;10.30;1.30;;;;;;5032278;28;20041;-27
2022/09/02 04:34:59;;;;;;;3.65;2.10;;;10.40;1.00;;;;;;5032752;28;20061;-27
2022/09/02 04:37:26;;;;;;;2.53;1.73;;;10.30;1.00;;;;;;5034556;28;20053;-27
2022/09/02 04:39:52;;;;;;;2.90;2.08;;;10.30;25.40;;;;;;5049891;28;20487;-27
2022/09/02 04:42:18;;;;;;;3.78;2.05;;;10.30;38.60;;;;;;5033104;28;20049;-27
2022/09/02 04:44:45;;;;;;;2.67;2.35;;;10.30;51.30;;;;;;5047938;28;20045;-27
2022/09/02 04:47:11;;;;;;;3.97;2.30;;;10.40;95.00;;;;;;5033461;28;20045;-27
2022/09/02 04:49:37;;;;;;;3.20;2.13;;;10.30;52.00;;;;;;5032918;28;20041;-27
2022/09/02 04:52:03;;;;;;;4.70;2.30;;;10.40;99.90;;;;;;5033059;28;20447;-27
2022/09/02 04:54:29;;;;;;;5.82;1.92;;;10.30;57.60;;;;;;5033439;28;20049;-27
2022/09/02 04:56:55;;;;;;;3.28;2.30;;;10.40;99.90;;;;;;5031406;28;20049;-27
2022/09/02 04:59:21;;;;;;;2.55;2.17;;;10.40;99.90;;;;;;5032438;28;20052;-27
2022/09/02 05:01:48;;;;;;;4.20;2.25;;;10.40;99.90;;;;;;5033534;28;20052;-27
2022/09/02 05:04:14;;;;;;;6.20;2.10;;;10.40;99.90;;;;;;5031804;28;20052;-27
2022/09/02 05:06:40;;;;;;;4.00;2.17;;;10.40;98.90;;;;;;5032926;28;20041;-27
2022/09/02 05:09:07;;;;;;;3.35;2.00;;;10.40;93.60;;;;;;5032634;28;20383;-27
2022/09/02 05:11:34;;;;;;;5.03;2.15;;;10.50;99.90;;;;;;5034061;28;20054;-27
2022/09/02 05:14:03;;;;;;;3.78;2.00;;;10.50;99.90;;;;;;5031298;28;20054;-28
2022/09/02 05:16:32;;;;;;;2.50;1.67;;;10.50;99.90;;;;;;5031326;28;20077;-28
2022/09/02 05:18:59;;;;;;;4.05;2.00;;;10.50;99.90;;;;;;5018491;28;20041;-27
2022/09/02 05:21:25;;;;;;;4.07;2.20;;;10.60;99.90;;;;;;5047908;28;20128;-27
2022/09/02 05:23:51;;;;;;;2.65;1.75;;;10.60;99.90;;;;;;5032627;28;20594;-29
2022/09/02 05:26:17;;;;;;;2.92;1.98;;;10.60;99.90;;;;;;5032730;28;20507;-27
2022/09/02 05:28:43;;;;;;;3.60;1.90;;;10.70;99.90;;;;;;5032315;28;20041;-27
2022/09/02 05:31:12;;;;;;;3.03;1.80;;;10.80;99.90;;;;;;5031504;28;20407;-28
2022/09/02 05:33:40;;;;;;;2.78;1.73;;;10.80;99.90;;;;;;5032336;28;20393;-27
2022/09/02 05:36:17;;;;;;;2.70;1.88;;;10.90;99.90;;;;;;5033181;28;20104;-27
2022/09/02 05:38:44;;;;;;;3.70;1.80;;;10.90;99.90;;;;;;5031906;28;20053;-27
2022/09/02 05:41:14;;;;;;;4.35;1.63;;;11.00;99.90;;;;;;5033273;28;20408;-27
2022/09/02 05:43:43;;;;;;;4.88;1.88;;;10.90;99.90;;;;;;5032693;28;20042;-27
2022/09/02 05:46:13;;;;;;;4.40;1.88;;;11.00;99.90;;;;;;5033167;28;20049;-28
2022/09/02 05:51:23;;;;;;;4.10;1.90;;;11.20;99.90;;;;;;5046333;28;20045;-27
2022/09/02 05:53:54;;;;;;;3.42;1.88;;;11.20;97.70;;;;;;5032204;28;20056;-27
2022/09/02 05:56:20;;;;;;;2.72;1.40;;;11.20;96.30;;;;;;5034017;28;20361;-27
2022/09/02 05:58:46;;;;;;;2.20;1.88;;;11.40;90.00;;;;;;5032059;28;20041;-27
2022/09/02 06:01:13;;;;;;;3.53;1.50;;;11.50;73.30;;;;;;5032197;28;20168;-27
2022/09/02 06:03:39;;;;;;;2.80;1.85;;;11.60;55.70;;;;;;5031468;28;20123;-27
2022/09/02 06:06:06;;;;;;;2.72;1.75;;;11.60;45.10;;;;;;5032416;28;20085;-27
2022/09/02 06:08:33;;;;;;;2.70;1.50;;;11.70;42.20;;;;;;5032355;28;20103;-27
2022/09/02 06:11:00;;;;;;;2.42;1.55;;;11.90;5.20;;;;;;5030594;28;20045;-27
2022/09/02 06:13:30;;;;;;;2.63;1.50;;;11.90;6.20;;;;;;5031984;28;20043;-27
2022/09/02 06:15:56;;;;;;;2.72;1.60;;;12.00;1.00;;;;;;5033738;28;20048;-28
2022/09/02 06:18:23;;;;;;;2.15;1.40;;;12.20;1.00;;;;;;5037263;28;20048;-27
2022/09/02 06:20:49;;;;;;;4.70;1.80;;;12.30;1.00;;;;;;5035311;28;20098;-27
2022/09/02 06:23:16;;;;;;;3.95;2.30;;;12.40;1.00;;;;;;5036432;28;20049;-27
2022/09/02 06:25:44;;;;;;;5.57;3.88;;;12.50;1.00;;;;;;5015523;28;20050;-27
2022/09/02 06:28:11;;;;;;;6.20;2.88;;;12.60;1.00;;;;;;5021299;28;20151;-27
2022/09/02 06:30:41;;;;;;;3.63;1.90;;;12.70;1.00;;;;;;5038979;28;21554;-28
2022/09/02 06:33:08;;;;;;;2.90;1.80;;;12.80;1.00;;;;;;5048008;28;20072;-27
2022/09/02 06:35:44;;;;;;;2.17;1.40;;;13.00;1.00;;;;;;5044025;28;20139;-27
2022/09/02 06:38:10;;;;;;;2.83;1.35;;;13.10;1.00;;;;;;5042600;28;20053;-27
2022/09/02 06:40:46;;;;;;;2.13;1.20;;;13.20;99.90;;;;;;5034897;28;20155;-27
2022/09/02 06:43:11;;;;;;;2.22;1.40;;;13.40;99.90;;;;;;5036263;28;20079;-28
2022/09/02 06:45:41;;;;;;;2.33;1.38;;;13.50;99.90;;;;;;5034814;28;20514;-27
2022/09/02 06:48:08;;;;;;;4.82;1.77;;;13.60;99.90;;;;;;5036082;28;20053;-27
2022/09/02 06:50:40;;;;;;;4.85;1.50;;;13.60;99.90;;;;;;5035915;28;20053;-27
2022/09/02 06:53:07;;;;;;;4.45;1.50;;;13.80;99.90;;;;;;5035938;28;20160;-28
2022/09/02 06:55:35;;;;;;;2.15;1.30;;;13.90;99.90;;;;;;5018464;28;20128;-27
2022/09/02 06:58:02;;;;;;;5.22;1.60;;;14.00;99.90;;;;;;5033606;28;20049;-28
2022/09/02 07:00:28;;;;;;;5.47;1.70;;;14.10;99.90;;;;;;5034491;28;20048;-27
2022/09/02 07:05:39;;;;;;;5.40;2.40;;;14.30;99.90;;;;;;5036232;28;20049;-27
2022/09/02 07:08:05;;;;;;;3.75;1.50;;;14.40;85.50;;;;;;5036426;28;20050;-28
2022/09/02 07:10:31;;;;;;;5.88;2.78;;;14.50;68.80;;;;;;5034373;28;20128;-27
2022/09/02 07:12:56;;;;;;;6.32;1.58;;;14.70;46.90;;;;;;5035486;28;20128;-27
2022/09/02 07:15:22;;;;;;;2.53;1.30;;;14.80;7.80;;;;;;5035508;28;20084;-27
2022/09/02 07:17:48;;;;;;;6.70;1.58;;;14.90;1.00;;;;;;5033127;28;20092;-27
2022/09/02 07:20:15;;;;;;;8.55;1.50;;;15.10;1.00;;;;;;5035344;28;20045;-27
2022/09/02 07:22:41;;;;;;;5.38;1.25;;;15.10;1.00;;;;;;5034265;28;20056;-27
2022/09/02 07:25:08;;;;;;;5.13;1.27;;;15.30;1.00;;;;;;5034312;28;20049;-28
2022/09/02 07:27:34;;;;;;;3.90;2.13;;;15.40;1.00;;;;;;5017151;28;20045;-27
2022/09/02 07:30:00;;;;;;;4.38;1.70;;;15.50;1.00;;;;;;5035699;28;20042;-27
2022/09/02 07:32:25;;;;;;;3.65;1.15;;;15.60;99.90;;;;;;5032964;28;20045;-27
2022/09/02 07:34:51;;;;;;;4.20;1.20;;;15.80;99.90;;;;;;5033721;28;20049;-28
2022/09/02 07:37:17;;;;;;;4.05;1.20;;;15.90;99.90;;;;;;5034772;28;20084;-28
2022/09/02 07:39:44;;;;;;;2.80;1.02;;;16.00;99.90;;;;;;5034647;28;20049;-27
2022/09/02 07:42:10;;;;;;;2.78;0.80;;;16.10;99.90;;;;;;5032808;28;20398;-27
2022/09/02 07:44:37;;;;;;;2.95;0.90;;;16.20;99.90;;;;;;5032817;28;20053;-28
2022/09/02 07:47:05;;;;;;;1.73;0.80;;;16.30;99.90;;;;;;5034953;28;20092;-27
2022/09/02 07:49:31;;;;;;;6.32;1.27;;;16.40;97.80;;;;;;5034409;28;20387;-27
2022/09/02 07:51:56;;;;;;;3.38;1.92;;;16.50;24.40;;;;;;5033784;28;20053;-27
2022/09/02 07:54:25;;;;;;;7.18;1.02;;;16.60;1.00;;;;;;5032969;28;20053;-27
2022/09/02 07:56:51;;;;;;;3.30;1.13;;;16.70;1.00;;;;;;5033492;28;20050;-27
2022/09/02 07:59:17;;;;;;;3.97;0.82;;;16.80;1.00;;;;;;5034585;28;20407;-28
2022/09/02 08:01:43;;;;;;;4.03;0.93;;;17.00;1.00;;;;;;5033615;28;20448;-27
2022/09/02 08:04:11;;;;;;;4.13;1.58;;;17.10;1.00;;;;;;5031549;28;20461;-27
2022/09/02 08:06:36;;;;;;;3.58;1.30;;;17.20;1.00;;;;;;5034364;28;20042;-27
2022/09/02 08:09:09;;;;;;;2.50;0.90;;;17.30;1.00;;;;;;5034375;28;20038;-28
2022/09/02 08:11:40;;;;;;;3.63;1.10;;;17.40;99.90;;;;;;5033529;28;20415;-28
2022/09/02 08:14:08;;;;;;;4.82;1.05;;;17.50;99.90;;;;;;5035022;28;20128;-28
2022/09/02 08:16:34;;;;;;;2.47;0.70;;;17.60;99.90;;;;;;5033506;28;20491;-27
2022/09/02 08:19:00;;;;;;;1.55;0.77;;;17.90;99.90;;;;;;5033177;28;20049;-27
2022/09/02 08:21:26;;;;;;;2.95;1.10;;;18.00;99.90;;;;;;5033293;28;20068;-27
2022/09/02 08:23:52;;;;;;;3.55;0.82;;;18.10;99.90;;;;;;5034225;28;20476;-27
2022/09/02 08:26:17;;;;;;;2.25;0.80;;;18.30;99.90;;;;;;5032785;28;20095;-27
2022/09/02 08:28:43;;;;;;;3.15;0.70;;;18.40;99.90;;;;;;5033556;28;20053;-28
2022/09/02 08:31:09;;;;;;;1.05;0.77;;;18.50;99.90;;;;;;5034130;28;20399;-28
2022/09/02 08:33:35;;;;;;;3.65;0.65;;;18.70;99.90;;;;;;5034604;28;20427;-28
2022/09/02 08:36:13;;;;;;;6.63;1.20;;;18.80;99.90;;;;;;5033079;28;20491;-28
2022/09/02 08:38:39;;;;;;;1.83;1.17;;;18.90;1.00;;;;;;5030668;28;20041;-29
2022/09/02 08:41:25;;;;;;;3.72;1.33;;;19.10;17.50;;;;;;5033702;28;20049;-28
2022/09/02 08:43:55;;;;;;;3.47;1.02;;;19.30;60.50;;;;;;5033566;28;20491;-28
2022/09/02 08:46:25;;;;;;;3.00;0.77;;;19.40;1.00;;;;;;5034008;28;20048;-29
2022/09/02 08:49:09;;;;;;;3.58;1.00;;;19.60;1.00;;;;;;5033807;28;20037;-28
2022/09/02 08:51:50;;;;;;;2.53;0.80;;;19.70;99.90;;;;;;5033720;28;20045;-27
2022/09/02 08:54:25;;;;;;;0.80;0.50;;;19.80;99.90;;;;;;5033738;28;20045;-27
2022/09/02 08:56:51;;;;;;;3.63;0.90;;;19.90;99.90;;;;;;5033012;28;20049;-28
2022/09/02 08:59:25;;;;;;;2.28;1.00;;;20.00;99.90;;;;;;5032437;28;20498;-27
2022/09/02 09:01:58;;;;;;;1.02;0.60;;;20.10;99.90;;;;;;5034480;28;20090;-28
2022/09/02 09:04:49;;;;;;;2.60;1.08;;;20.20;99.90;;;;;;5034635;28;20053;-29
2022/09/02 09:07:45;;;;;;;4.40;1.40;;;20.30;99.90;;;;;;5031584;28;20111;-27
2022/09/02 09:10:36;;;;;;;4.28;0.98;;;20.90;2.20;;;;;;5034509;28;20099;-28
2022/09/02 09:13:07;;;;;;;5.55;0.80;;;22.30;1.00;;;;;;5033575;28;20484;-28
2022/09/02 09:16:01;;;;;;;4.55;0.68;;;23.40;99.90;;;;;;5016142;28;20053;-29
2022/09/02 09:18:38;;;;;;;5.53;0.80;;;23.90;1.00;;;;;;5033161;28;20408;-27
2022/09/02 09:21:06;;;;;;;2.53;1.02;;;24.40;1.00;;;;;;5030319;28;20049;-29
2022/09/02 09:23:34;;;;;;;5.50;0.70;;;24.70;1.00;;;;;;5032291;28;20085;-27
2022/09/02 09:26:16;;;;;;;3.13;0.55;;;24.80;1.00;;;;;;5033405;28;20491;-28
2022/09/02 09:28:44;;;;;;;1.52;0.60;;;25.00;1.00;;;;;;5033996;28;20042;-28
2022/09/02 09:31:13;;;;;;;1.33;0.77;;;25.10;1.00;;;;;;5031626;28;20502;-28
2022/09/02 09:33:40;;;;;;;1.60;0.50;;;25.30;1.00;;;;;;5033325;28;20495;-28
2022/09/02 09:36:08;;;;;;;5.30;1.00;;;25.40;1.00;;;;;;5032716;28;20068;-28
2022/09/02 09:38:35;;;;;;;3.83;1.10;;;25.50;1.00;;;;;;5034027;28;20095;-28
2022/09/02 09:41:20;;;;;;;4.63;0.82;;;25.80;20.50;;;;;;5031584;28;20043;-28
2022/09/02 09:43:46;;;;;;;1.42;0.75;;;26.20;92.00;;;;;;5032291;28;20046;-28
2022/09/02 09:46:26;;;;;;;4.20;0.75;;;26.20;99.90;;;;;;5033798;28;20546;-28
2022/09/02 09:48:52;;;;;;;2.30;0.80;;;26.30;1.00;;;;;;5033254;28;20107;-28
2022/09/02 09:51:17;;;;;;;3.72;1.17;;;26.40;99.90;;;;;;5034817;28;20052;-28
2022/09/02 09:53:43;;;;;;;3.05;0.90;;;26.50;99.90;;;;;;5017218;28;20045;-28
2022/09/02 09:56:15;;;;;;;3.00;0.70;;;26.90;99.90;;;;;;5016025;28;20130;-28
2022/09/02 09:58:44;;;;;;;2.33;0.80;;;27.10;99.90;;;;;;5017049;28;20046;-28
2022/09/02 10:01:16;;;;;;;4.43;1.23;;;27.30;99.90;;;;;;5020672;28;20038;-28
2022/09/02 10:03:54;;;;;;;4.53;2.30;;;27.30;99.90;;;;;;5025279;28;20052;-28
2022/09/02 10:06:24;;;;;;;2.67;0.98;;;27.30;99.90;;;;;;5036782;28;20076;-28
2022/09/02 10:08:58;;;;;;;1.80;0.60;;;27.40;99.90;;;;;;5037142;28;20046;-28
2022/09/02 10:11:29;;;;;;;5.93;1.35;;;27.50;99.90;;;;;;5039624;28;20057;-28
2022/09/02 10:14:03;;;;;;;4.28;1.23;;;27.40;99.90;;;;;;5036755;28;20049;-28
2022/09/02 10:16:28;;;;;;;4.93;0.70;;;27.60;99.90;;;;;;5036599;28;20056;-29
2022/09/02 10:19:08;;;;;;;7.85;0.80;;;27.60;1.00;;;;;;5036480;28;20067;-28
2022/09/02 10:21:54;;;;;;;1.63;0.60;;;27.60;1.00;;;;;;5034633;28;20080;-28
2022/09/02 10:24:59;;;;;;;4.32;0.90;;;27.50;1.00;;;;;;5036411;28;20054;-28
2022/09/02 10:27:39;;;;;;;5.55;0.82;;;27.80;1.00;;;;;;5036387;28;20392;-28
2022/09/02 10:30:18;;;;;;;6.40;1.08;;;28.00;1.00;;;;;;5035653;28;20088;-28
2022/09/02 10:33:10;;;;;;;4.97;0.75;;;28.10;1.00;;;;;;5034374;28;20045;-29
2022/09/02 10:35:44;;;;;;;5.82;0.57;;;28.40;3.80;;;;;;5034907;28;20057;-28
2022/09/02 10:38:36;;;;;;;1.10;0.52;;;28.40;36.80;;;;;;5034959;28;20056;-28
2022/09/02 10:41:44;;;;;;;3.78;0.80;;;28.30;63.60;;;;;;5036151;28;20141;-28
2022/09/02 10:44:19;;;;;;;9.75;0.98;;;28.20;99.90;;;;;;5016172;28;20050;-28
2022/09/02 10:47:03;;;;;;;2.80;1.70;;;28.70;99.90;;;;;;5031541;28;20453;-28
2022/09/02 10:50:02;;;;;;;3.17;0.77;;;28.80;99.90;;;;;;5036842;28;20129;-28
2022/09/02 10:53:01;;;;;;;2.38;0.65;;;28.80;99.90;;;;;;5035893;28;20049;-29
2022/09/02 10:55:45;;;;;;;4.00;0.80;;;28.70;99.90;;;;;;5036827;28;20052;-28
2022/09/02 10:58:18;;;;;;;2.28;0.60;;;28.40;99.90;;;;;;5034246;28;20041;-28
2022/09/02 11:00:50;;;;;;;4.30;1.33;;;28.40;99.90;;;;;;5033234;28;20043;-28
2022/09/02 11:03:26;;;;;;;2.05;0.40;;;28.30;99.90;;;;;;5044035;28;20129;-28
2022/09/02 11:06:03;;;;;;;3.95;0.65;;;28.10;99.90;;;;;;5032997;28;20381;-29
2022/09/02 11:08:56;;;;;;;3.65;0.60;;;28.30;99.90;;;;;;5029332;28;20140;-29
2022/09/02 11:11:25;;;;;;;5.47;0.80;;;28.60;99.90;;;;;;5035457;28;20057;-29
2022/09/02 11:14:19;;;;;;;3.33;0.93;;;28.60;99.90;;;;;;5049902;28;20041;-28
2022/09/02 11:17:08;;;;;;;4.25;0.82;;;28.70;99.90;;;;;;5040050;28;20041;-29
2022/09/02 11:19:58;;;;;;;4.28;0.50;;;28.80;99.90;;;;;;5035953;28;20042;-29
2022/09/02 11:22:33;;;;;;;4.57;0.80;;;29.20;99.90;;;;;;5034864;28;20045;-28
2022/09/02 11:24:59;;;;;;;1.70;0.60;;;29.10;99.90;;;;;;5035938;28;20046;-29
2022/09/02 11:27:39;;;;;;;2.47;0.80;;;29.00;99.90;;;;;;5039355;28;20147;-28
2022/09/02 11:30:22;;;;;;;4.65;0.73;;;29.10;99.90;;;;;;5027255;28;20052;-28
2022/09/02 11:32:51;;;;;;;3.20;1.02;;;29.10;99.90;;;;;;5029265;28;20058;-29
2022/09/02 11:35:27;;;;;;;4.82;0.60;;;29.20;99.90;;;;;;5029639;28;20061;-28
2022/09/02 11:38:19;;;;;;;1.33;0.50;;;29.30;99.90;;;;;;5027224;28;20050;-28
2022/09/02 11:41:06;;;;;;;3.15;0.80;;;29.50;99.90;;;;;;5025187;28;20052;-28
2022/09/02 11:43:50;;;;;;;3.55;0.93;;;29.50;99.90;;;;;;5039102;28;20490;-28
2022/09/02 11:46:40;;;;;;;2.50;1.10;;;29.70;99.90;;;;;;5033418;28;20053;-27
2022/09/02 11:49:34;;;;;;;4.32;0.73;;;30.20;99.90;;;;;;5034448;28;20056;-27
2022/09/02 11:52:23;;;;;;;4.65;0.75;;;30.40;99.90;;;;;;5034932;28;20099;-27
2022/09/02 11:55:00;;;;;;;3.83;1.52;;;30.30;99.90;;;;;;5035778;28;20045;-27
2022/09/02 11:57:26;;;;;;;3.05;0.60;;;30.00;99.90;;;;;;5034761;28;20124;-27
2022/09/02 11:59:52;;;;;;;2.58;0.45;;;30.00;99.90;;;;;;5034599;28;20133;-27
2022/09/02 12:02:39;;;;;;;3.80;0.65;;;30.00;99.90;;;;;;5034331;28;20064;-27
2022/09/02 12:05:28;;;;;;;4.53;1.00;;;30.20;99.90;;;;;;5033445;28;20056;-27
2022/09/02 12:07:59;;;;;;;3.78;0.70;;;29.80;99.90;;;;;;5034819;28;20049;-27
2022/09/02 12:10:43;;;;;;;4.00;0.82;;;29.90;99.90;;;;;;5034521;28;20049;-27
2022/09/02 12:13:30;;;;;;;3.00;0.68;;;30.10;99.90;;;;;;5016084;28;20049;-27
2022/09/02 12:16:14;;;;;;;5.97;0.70;;;29.90;99.90;;;;;;5035282;28;20053;-27
2022/09/02 12:19:06;;;;;;;2.90;0.70;;;30.00;99.90;;;;;;5034282;28;20050;-27
2022/09/02 12:21:34;;;;;;;2.25;0.50;;;29.70;99.90;;;;;;5022272;28;20072;-28
2022/09/02 12:23:59;;;;;;;2.25;0.80;;;29.60;99.90;;;;;;5049738;28;20042;-27
2022/09/02 12:26:48;;;;;;;2.20;0.80;;;29.50;99.90;;;;;;5034182;28;20049;-27
2022/09/02 12:29:17;;;;;;;5.78;1.20;;;29.50;99.90;;;;;;5034251;28;20049;-27
2022/09/02 12:31:45;;;;;;;2.88;0.70;;;29.40;99.90;;;;;;5034091;28;20050;-27
2022/09/02 12:34:20;;;;;;;2.10;0.70;;;29.30;99.90;;;;;;5034409;28;20044;-27
2022/09/02 12:36:55;;;;;;;6.22;1.10;;;29.20;99.90;;;;;;5033992;28;20057;-27
2022/09/02 12:39:26;;;;;;;4.55;0.88;;;29.30;99.90;;;;;;5033606;28;20462;-27
2022/09/02 12:42:08;;;;;;;6.18;0.90;;;29.60;99.90;;;;;;5033878;28;20045;-27
2022/09/02 12:44:53;;;;;;;6.28;0.88;;;30.10;99.90;;;;;;5033886;28;20048;-27
2022/09/02 12:47:20;;;;;;;4.68;0.82;;;29.90;99.90;;;;;;5034212;28;20045;-27
2022/09/02 12:50:11;;;;;;;0.95;0.60;;;29.90;99.90;;;;;;5032765;28;20049;-27
2022/09/02 12:52:43;;;;;;;4.05;1.08;;;30.00;99.90;;;;;;5033821;28;20506;-27
2022/09/02 12:55:21;;;;;;;2.00;0.70;;;29.90;99.90;;;;;;5033843;28;20096;-27
2022/09/02 12:58:18;;;;;;;3.20;0.63;;;29.80;99.90;;;;;;5033805;28;20083;-27
2022/09/02 13:01:09;;;;;;;2.22;0.70;;;29.80;99.90;;;;;;5026753;28;20522;-27
2022/09/02 13:03:34;;;;;;;5.05;0.88;;;29.70;99.90;;;;;;5033733;28;20053;-27
2022/09/02 13:06:19;;;;;;;4.82;0.65;;;29.60;99.90;;;;;;5033673;28;20045;-28
2022/09/02 13:08:58;;;;;;;4.53;0.73;;;29.80;99.90;;;;;;5032655;28;20187;-28
2022/09/02 13:11:45;;;;;;;4.07;0.70;;;30.00;99.90;;;;;;5014770;28;20088;-27